Monday, November 20, 2017, 1:44 PM EST
Back to Local

KHYA, Hyannis Barnstable Boardmn

Location: West Yarmouth, MA, United States Lat: 41.667
Local Time: 1:44 PM EST (18:44 GMT) Lon: -70.267
Time Zone: US/Eastern Elev: 52 ft

Show me the last for .
Show Decoded

2017-11-20 12:56 METAR KHYA 201756Z 29010G20KT 260V320 10SM BKN060 05/M08 A2990 RMK AO2 PK WND
                 27026/1735 SLP126 T00501083 10072 20022 53005 =
2017-11-20 11:56 METAR KHYA 201656Z 29014G24KT 10SM BKN060 05/M08 A2989 RMK AO2 PK WND 27028/1619
                 SLP124 T00501083 =
2017-11-20 10:56 METAR KHYA 201556Z 28011G22KT 10SM CLR 04/M08 A2989 RMK AO2 PK WND 28031/1534
                 SLP123 T00441083 =
2017-11-20 09:56 METAR KHYA 201456Z 29017G26KT 10SM CLR 04/M09 A2989 RMK AO2 PK WND 27033/1426
                 SLP121 T00441089 51020 =
2017-11-20 08:56 METAR KHYA 201356Z 30017G22KT 10SM CLR 03/M09 A2987 RMK AO2 PK WND 30028/1314
                 SLP116 T00331094 =
2017-11-20 07:56 METAR KHYA 201256Z 28014G23KT 10SM CLR 03/M08 A2986 RMK AO2 PK WND 26026/1240
                 SLP111 T00281078 =
2017-11-20 06:56 METAR KHYA 201156Z 29009G15KT 10SM CLR 02/M06 A2983 RMK AO2 SLP101 70022
                 T00221056 10039 20022 52029 =
2017-11-20 05:56 METAR KHYA 201056Z 28013G21KT 10SM SCT085 03/M06 A2979 RMK AO2 SLP089 T00281061
                 =
2017-11-20 04:56 METAR KHYA 200956Z AUTO 28007KT 10SM SCT070 03/M04 A2977 RMK AO2 SLP083
                 T00281039 =
2017-11-20 03:56 METAR KHYA 200856Z AUTO 28008KT 10SM CLR 03/M04 A2974 RMK AO2 SLP071 T00281039
                 51024 =
2017-11-20 02:56 METAR KHYA 200756Z AUTO 28008KT 10SM CLR 03/M04 A2972 RMK AO2 SLP064 T00331039 =
2017-11-20 01:56 METAR KHYA 200656Z AUTO 27010G19KT 10SM CLR 03/M03 A2970 RMK AO2 SLP058
                 T00331033 =
2017-11-20 00:56 METAR KHYA 200556Z AUTO 27010KT 10SM CLR 03/M03 A2967 RMK AO2 SLP047 T00331033
                 10056 20033 51017 =
2017-11-19 23:56 METAR KHYA 200456Z AUTO 27006KT 10SM CLR 03/M03 A2966 RMK AO2 SLP043 T00331033
                 401670033 =
2017-11-19 22:56 METAR KHYA 200356Z AUTO 27007KT 10SM CLR 04/M04 A2964 RMK AO2 SLP039 T00391039 =
2017-11-19 21:56 METAR KHYA 200256Z 28011G20KT 10SM CLR 04/M04 A2962 RMK AO2 SLP031 T00441044
                 51030 =
2017-11-19 20:56 METAR KHYA 200156Z 28011G19KT 10SM CLR 04/M04 A2959 RMK AO2 SLP021 T00441039 =
2017-11-19 19:56 METAR KHYA 200056Z 29010G20KT 10SM CLR 05/M03 A2956 RMK AO2 SLP011 T00501028 =
2017-11-19 18:56 METAR KHYA 192356Z 29013G20KT 10SM CLR 05/M03 A2953 RMK AO2 SLP001 T00501028
                 10144 20050 51053 =
2017-11-19 17:56 METAR KHYA 192256Z 27013KT 10SM CLR 06/M02 A2949 RMK AO2 SLP987 T00611017 =
2017-11-19 16:56 METAR KHYA 192156Z 29010G19KT 10SM CLR 07/M02 A2943 RMK AO2 PK WND 27026/2141
                 SLP965 T00721017 =
2017-11-19 15:56 METAR KHYA 192056Z 28014G23KT 10SM CLR 09/M01 A2937 RMK AO2 PK WND 29031/2045
                 PRESRR SLP947 T00891006 51066 =
2017-11-19 14:56 METAR KHYA 191956Z 28018G32KT 10SM CLR 11/01 A2931 RMK AO2 PK WND 27032/1953
                 PRESRR SLP926 T01060006 =
2017-11-19 13:56 METAR KHYA 191856Z 28016G26KT 10SM BKN045 12/03 A2924 RMK AO2 PK WND 29035/1818
                 WSHFT 1805 PRESRR SLP903 T01170033 =

Support USWX by starting your Amazon purchase here.